Glade, Kansas
Current Conditions -  °F | °C
As of 1:53 PM on Sunday 23 Nov 2014 (Local Time) from KHLC Reporting Station
Few Clouds Few Clouds  
Wind Chill: 40°   Ceiling: Unl
Heat Index: 48°   Visibility: 10mi
Dew Point: 23°   Wind: 29mph
Humidity: 37%   Direction: 360°N
Pressure: 29.61"   Gusts: 39mph
Location:  39.68°N, 99.31°W
Report Text: KHLC 231953Z AUTO 36025G34KT 10SM FEW120 09/M05 A2961 RMK AO2 PK WND 36034/1944 SLP023 T00891050
Loading
Personal Weather Stations






























Interactive Weather Map New forecast layout! Learn more

10-Day Weather Forecast

Advertisements
Track Severe Weather on mobile